Flight Track Log - Related Links

Times and Time Zones

All times are in EST time to prevent confusion due to time zone crossing. See the UCA3596 flight status page for this flight to view local times or setup timezone preferences in your user account.

Time Position Orientation Groundspeed Altitude Reporting Facility
EST Latitude Longitude Course Direction KTS MPH feet Rate Location/Type
Sat 06:12:55 PM 42.1781 -75.9672 212° Southwest 258 297 3,200  Level New York Center
Sat 06:13:55 PM 42.1375 -75.9950 207° Southwest 154 177 4,300 1,050 Climbing New York Center
Sat 06:14:55 PM 42.1025 -76.0283 215° Southwest 174 200 5,300 1,150 Climbing New York Center
Sat 06:15:55 PM 42.0633 -76.0672 216° Southwest 191 220 6,600 850 Climbing New York Center
Sat 06:16:55 PM 42.0200 -76.1083 215° Southwest 186 214 7,000 700 Climbing New York Center
Sat 06:17:55 PM 41.9786 -76.1497 217° Southwest 191 220 8,000 950 Climbing New York Center
Sat 06:18:00 PM 41.8718 -76.1397 212° Southwest  Level Estimated
Sat 06:18:55 PM 41.9283 -76.1986 216° Southwest 191 220 8,900  Level New York Center
Sat 06:19:55 PM 41.8911 -76.2375 218° Southwest 185 213 10,600 1,550 Climbing New York Center
Sat 06:20:55 PM 41.8564 -76.2678 213° Southwest 175 201 12,000 1,300 Climbing New York Center
Sat 06:21:55 PM 41.8214 -76.3067 220° Southwest 175 201 13,200 1,400 Climbing New York Center
Sat 06:22:55 PM 41.7778 -76.3475 215° Southwest 175 201 14,800 1,350 Climbing New York Center
Sat 06:23:55 PM 41.7364 -76.3886 217° Southwest 187 215 15,900 600 Climbing New York Center
Sat 06:24:55 PM 41.6903 -76.4347 217° Southwest 203 234 16,000 50 Climbing New York Center
Sat 06:25:55 PM 41.6444 -76.4808 217° Southwest 224 258 16,000  Level New York Center
Sat 06:26:55 PM 41.5919 -76.5319 216° Southwest 230 265 16,000  Level New York Center
Sat 06:27:55 PM 41.5333 -76.5850 214° Southwest 230 265 16,000  Level New York Center
Sat 06:28:55 PM 41.4750 -76.6242 207° Southwest 230 265 16,000  Level New York Center
Sat 06:29:55 PM 41.4161 -76.6386 190° South 242 278 16,000  Level New York Center
Sat 06:30:55 PM 41.3503 -76.6631 196° South 247 284 16,000  Level New York Center
Sat 06:31:55 PM 41.2778 -76.6928 197° South 247 284 16,000  Level New York Center
Sat 06:32:55 PM 41.2122 -76.7147 194° South 247 284 16,000 -50 Level New York Center
Sat 06:33:55 PM 41.1464 -76.7364 194° South 247 284 15,900 -50 Descending New York Center
Sat 06:34:55 PM 41.0808 -76.7581 194° South 247 284 15,900  Level New York Center
Sat 06:35:55 PM 41.0172 -76.7800 195° South 247 284 15,900  Level New York Center
Sat 06:36:55 PM 40.9514 -76.8017 194° South 247 284 15,900  Level New York Center
Sat 06:37:55 PM 40.8836 -76.8258 195° South 247 284 15,900  Level New York Center
Sat 06:38:55 PM 40.8242 -76.8453 194° South 247 284 15,900  Level New York Center
Sat 06:39:55 PM 40.7500 -76.8717 195° South 247 284 15,900 50 Level New York Center
Sat 06:40:55 PM 40.6886 -76.8908 193° South 247 284 16,000 100 Climbing New York Center
Sat 06:41:55 PM 40.6164 -76.9172 196° South 252 290 16,100 50 Climbing New York Center
Sat 06:42:55 PM 40.5547 -76.9364 193° South 252 290 16,100 -50 Level New York Center
Sat 06:43:55 PM 40.4764 -76.9619 194° South 252 290 16,000 -50 Descending New York Center
Sat 06:44:55 PM 40.4169 -76.9814 194° South 252 290 16,000  Level New York Center
Sat 06:45:55 PM 40.3428 -77.0072 195° South 257 296 16,000 50 Level New York Center
Sat 06:46:55 PM 40.2811 -77.0289 195° South 257 296 16,100  Climbing New York Center
Sat 06:47:55 PM 40.2069 -77.0522 194° South 252 290 16,000 -663 Descending New York Center
Sat 06:49:47 PM 40.0667 -77.1000 195° South 271 312 14,200 -1,012 Descending Potomac TRACON
Sat 06:50:47 PM 40.0000 -77.1167 191° South 266 306 13,100 -1,050 Descending Potomac TRACON
Sat 06:51:47 PM 39.9333 -77.1500 201° Southwest 265 305 12,100 -1,000 Descending Potomac TRACON
Sat 06:52:41 PM 39.8833 -77.1667 194° South 258 297 11,200 -1,100 Descending Potomac TRACON
Sat 06:53:47 PM 39.8000 -77.2000 197° South 243 280 9,900 -1,134 Descending Potomac TRACON
Sat 06:54:48 PM 39.7500 -77.2500 218° Southwest 229 264 8,800 -992 Descending Potomac TRACON
Sat 06:55:54 PM 39.6833 -77.3000 210° Southwest 236 272 7,800 -900 Descending Potomac TRACON
Sat 06:56:48 PM 39.6333 -77.3333 207° Southwest 237 273 7,000 -500 Descending Potomac TRACON
Sat 06:57:42 PM 39.5833 -77.3667 207° Southwest 229 264 6,900 -53 Descending Potomac TRACON
Sat 06:58:42 PM 39.5333 -77.4000 207° Southwest 226 260 6,900 50 Level Potomac TRACON
Sat 06:59:42 PM 39.4667 -77.4333 201° Southwest 227 261 7,000  Climbing Potomac TRACON
Sat 07:00:48 PM 39.4000 -77.4500 191° South 233 268 6,900 -143 Descending Potomac TRACON
Sat 07:01:48 PM 39.3333 -77.4500 180° South 239 275 6,700 -650 Descending Potomac TRACON
Sat 07:02:48 PM 39.2667 -77.4500 180° South 222 255 5,600 -1,100 Descending Potomac TRACON
Sat 07:03:48 PM 39.2167 -77.4500 180° South 171 197 4,500 -895 Descending Potomac TRACON
Sat 07:04:42 PM 39.1667 -77.4500 180° South 157 181 3,900 -500 Descending Potomac TRACON
Sat 07:05:48 PM 39.1333 -77.4500 180° South 157 181 3,500 -667 Descending Potomac TRACON
Sat 07:06:48 PM 39.0833 -77.4500 180° South 145 167 2,500 -850 Descending Potomac TRACON
Sat 07:07:48 PM 39.0500 -77.4667 201° Southwest 137 158 1,800 -619 Descending Potomac TRACON
Sat 07:08:54 PM 39.0167 -77.4667 180° South 103 119 1,200 -550 Descending Potomac TRACON
Sat 07:09:48 PM 38.9833 -77.4667 180° South 96 110 700 -556 Descending Potomac TRACON
Sat 07:11:00 PM 38.9474 -77.4599 119° Southeast  Level Estimated
Sat 07:18:00 PM 38.9474 -77.4599 349° North  Level Estimated

Login

Don't have an account? Register now (free) for customized features, flight alerts, and more!